Mount Carmel, Mississippi
Current Conditions -  °F | °C
As of 5:35 PM on Friday 19 Dec 2014 (Local Time) from KPIB Reporting Station
Clear Clear  
Wind Chill: 42°   Ceiling: Unl
Heat Index: 46°   Visibility: 7mi
Dew Point: 43°   Wind: 8mph
Humidity: 87%   Direction: 30°NNE
Pressure: 30.16"   Gusts: NA
Location:  31.5969°N, 89.8752°W
Report Text: KPIB 192335Z AUTO 03007KT 7SM CLR 08/06 A3016 RMK AO1 P0007
Loading
Personal Weather Stations






























Interactive Weather Map New forecast layout! Learn more

10-Day Weather Forecast

Advertisements
Track Severe Weather on mobile